Primer Ensanche, Spain
Current Conditions -  °F | °C
As of 10:30 PM on Saturday 22 Nov 2014 (Local Time) from LEPP Reporting Station
Haze Haze  
Wind Chill: 52°   Ceiling: Unl
Heat Index: 52°   Visibility: 2.5mi
Dew Point: 52°   Wind: 3mph
Humidity: 100%   Direction: 60°ENE
Pressure: 30"   Gusts: NA
Location:  42.81°N, 1.65°W
Report Text: LEPP 222130Z 06003KT 4000 BR FEW015 11/11 Q1016
Loading
Personal Weather Stations






























Interactive Weather Map New forecast layout! Learn more

10-Day Weather Forecast

Advertisements
Track Severe Weather on mobile